Pagrindinis puslapis
METAR-TAF:

METAR-TAF

Oro uostai :

Ambatas, Ekvadoras

platuma: 01-12-43S, ilguma: 078-34-28W, Aukštis: 2591 m

Dabartinis oras

Ataskaita buvo paskelbta 5 valandos ir 47 minutes, ne 21:00 UTC
Vėjas 2 kt iš Rytų/Pietryčių
Temperatūra 19°C
Drėgmė 52%
Slėgis 1025 hPa
Matomumas 10 km arba daugiau
Išsisklaidę debesys ne aukštis 1600 ft
Su prošvaistėmis ne aukštis 2300 ft

METAR: SEAM 142100Z 12002KT 9999 SCT016 BKN023 19/09 Q1025

Laikas: 21:47 (02:47 UTC)


TAF: trūkstamas

Orai ataskaitas ir orų prognozės (METAR, TAF).

turimą stotys yra geltonos ir raudonos taškus žemėlapyje.

Perkelti pele per norėdami pamatyti stoties vardą.

Tada spustelėkite, norėdami matyti oro stebėjimo ir prognozės.

Norėdami pakeisti žemėlapį: spustelėkite ant žalios mygtukų su juodo kryžiaus žemyn,; žalią mygtuką su brūkšneliu, jei norite nutolinti; arba žalių rodyklių gretimoms žemėlapius.


METAR-TAF: